createdAt,value
2018-03-08T00:00:08.988Z,0
2018-03-08T00:01:11.411Z,0
2018-03-08T00:02:14.133Z,0
2018-03-08T00:03:16.545Z,0
2018-03-08T00:04:18.969Z,0
2018-03-08T00:05:21.403Z,0
2018-03-08T00:06:23.818Z,0
2018-03-08T00:07:26.246Z,0
2018-03-08T00:08:28.964Z,0
2018-03-08T00:09:31.382Z,0
2018-03-08T00:10:33.812Z,0
2018-03-08T00:11:36.237Z,0
2018-03-08T00:12:38.660Z,0
2018-03-08T00:13:41.084Z,0
2018-03-08T00:14:43.515Z,0
2018-03-08T00:15:46.223Z,0
2018-03-08T00:16:48.658Z,0
2018-03-08T00:17:51.370Z,0
2018-03-08T00:18:53.791Z,0
2018-03-08T00:19:56.209Z,0
2018-03-08T00:20:58.638Z,0
2018-03-08T00:22:01.062Z,0
2018-03-08T00:23:03.490Z,0
2018-03-08T00:24:05.918Z,0
2018-03-08T00:25:08.342Z,0
2018-03-08T00:26:10.771Z,0
2018-03-08T00:27:13.193Z,0
2018-03-08T00:28:15.626Z,0
2018-03-08T00:29:18.036Z,0
2018-03-08T00:30:20.472Z,0
2018-03-08T00:31:22.902Z,0
2018-03-08T00:32:25.322Z,0
2018-03-08T00:33:28.044Z,0
2018-03-08T00:34:30.759Z,0
2018-03-08T00:35:33.197Z,0
2018-03-08T00:36:35.616Z,0
2018-03-08T00:37:38.320Z,0
2018-03-08T00:38:40.745Z,0
2018-03-08T00:39:43.178Z,0
2018-03-08T00:40:45.592Z,0
2018-03-08T00:41:48.307Z,0
2018-03-08T00:42:50.737Z,0
2018-03-08T00:43:53.161Z,0
2018-03-08T00:44:55.585Z,0
2018-03-08T00:45:58.010Z,0
2018-03-08T00:47:00.432Z,0
2018-03-08T00:48:02.872Z,0
2018-03-08T00:49:05.299Z,0
2018-03-08T00:50:07.713Z,0
2018-03-08T00:51:10.144Z,0
2018-03-08T00:52:12.574Z,0
2018-03-08T00:53:14.997Z,0
2018-03-08T00:54:17.434Z,0
2018-03-08T00:55:20.137Z,0
2018-03-08T00:56:22.559Z,0
2018-03-08T00:57:25.269Z,0
2018-03-08T00:58:27.999Z,0
2018-03-08T00:59:30.709Z,0
2018-03-08T01:00:33.135Z,0
2018-03-08T01:01:35.548Z,0
2018-03-08T01:02:37.981Z,0
2018-03-08T01:03:40.405Z,0
2018-03-08T01:04:42.847Z,0
2018-03-08T01:05:45.269Z,0
2018-03-08T01:06:47.738Z,0
2018-03-08T01:07:50.168Z,0
2018-03-08T01:08:52.595Z,0
2018-03-08T01:09:55.024Z,0
2018-03-08T01:10:57.455Z,0
2018-03-08T01:11:59.871Z,0
2018-03-08T01:13:02.298Z,0
2018-03-08T01:14:04.737Z,0
2018-03-08T01:15:07.152Z,0
2018-03-08T01:16:09.580Z,0
2018-03-08T01:17:12.008Z,0
2018-03-08T01:18:14.427Z,0
2018-03-08T01:19:16.853Z,0
2018-03-08T01:20:19.279Z,0
2018-03-08T01:21:21.691Z,0
2018-03-08T01:22:24.725Z,0
2018-03-08T01:23:27.148Z,0
2018-03-08T01:24:29.577Z,0
2018-03-08T01:25:32.004Z,0
2018-03-08T01:26:35.299Z,0
2018-03-08T01:27:37.727Z,0
2018-03-08T01:28:40.439Z,0
2018-03-08T01:29:42.862Z,0
2018-03-08T01:30:45.576Z,0
2018-03-08T01:31:48.000Z,0
2018-03-08T01:32:50.421Z,0
2018-03-08T01:33:52.844Z,0
2018-03-08T01:34:55.552Z,0
2018-03-08T01:35:57.969Z,0
2018-03-08T01:37:00.400Z,0
2018-03-08T01:38:02.809Z,0
2018-03-08T01:39:05.241Z,0
2018-03-08T01:40:07.697Z,0
2018-03-08T01:41:10.097Z,0
2018-03-08T01:42:12.528Z,0
2018-03-08T01:43:14.947Z,0
2018-03-08T01:44:17.369Z,0
2018-03-08T01:45:19.807Z,0
2018-03-08T01:46:22.241Z,0
2018-03-08T01:47:25.231Z,0
2018-03-08T01:48:27.655Z,0
2018-03-08T01:49:30.082Z,0
2018-03-08T01:50:32.793Z,0
2018-03-08T01:51:35.220Z,0
2018-03-08T01:52:37.648Z,0
2018-03-08T01:53:40.076Z,0
2018-03-08T01:54:42.494Z,0
2018-03-08T01:55:45.207Z,0
2018-03-08T01:56:47.639Z,0
2018-03-08T01:57:50.063Z,0
2018-03-08T01:58:52.484Z,0
2018-03-08T01:59:55.189Z,0
2018-03-08T02:00:57.612Z,0
2018-03-08T02:02:00.052Z,0
2018-03-08T02:03:02.474Z,0
2018-03-08T02:04:04.894Z,0
2018-03-08T02:05:07.318Z,0
2018-03-08T02:06:09.750Z,0
2018-03-08T02:07:12.175Z,0
2018-03-08T02:08:14.606Z,0
2018-03-08T02:09:17.638Z,0
2018-03-08T02:10:20.037Z,0
2018-03-08T02:11:22.467Z,0
2018-03-08T02:12:24.894Z,0
2018-03-08T02:13:27.309Z,0
2018-03-08T02:14:30.031Z,0
2018-03-08T02:15:32.458Z,0
2018-03-08T02:16:34.881Z,0
2018-03-08T02:17:37.617Z,0
2018-03-08T02:18:40.044Z,0
2018-03-08T02:19:42.745Z,0
2018-03-08T02:20:45.178Z,0
2018-03-08T02:21:47.601Z,0
2018-03-08T02:22:50.017Z,0
2018-03-08T02:23:52.453Z,0
2018-03-08T02:24:55.166Z,0
2018-03-08T02:25:57.583Z,0
2018-03-08T02:27:00.293Z,0
2018-03-08T02:28:02.730Z,0
2018-03-08T02:29:05.435Z,0
2018-03-08T02:30:07.862Z,0
2018-03-08T02:31:10.297Z,0
2018-03-08T02:32:13.016Z,0
2018-03-08T02:33:15.442Z,0
2018-03-08T02:34:17.869Z,0
2018-03-08T02:35:20.282Z,0
2018-03-08T02:36:23.016Z,0
2018-03-08T02:37:25.428Z,0
2018-03-08T02:38:27.864Z,0
2018-03-08T02:39:30.280Z,0
2018-03-08T02:40:32.713Z,0
2018-03-08T02:41:35.147Z,0
2018-03-08T02:42:37.842Z,0
2018-03-08T02:43:40.568Z,0
2018-03-08T02:44:42.997Z,0
2018-03-08T02:45:45.416Z,0
2018-03-08T02:46:47.841Z,0
2018-03-08T02:47:50.268Z,0
2018-03-08T02:48:52.696Z,0
2018-03-08T02:49:55.120Z,0
2018-03-08T02:50:57.832Z,0
2018-03-08T02:52:00.256Z,0
2018-03-08T02:53:02.682Z,0
2018-03-08T02:54:05.105Z,0
2018-03-08T02:55:07.819Z,0
2018-03-08T02:56:10.249Z,0
2018-03-08T02:57:12.975Z,0
2018-03-08T02:58:15.697Z,0
2018-03-08T02:59:18.473Z,0
2018-03-08T03:00:20.920Z,0
2018-03-08T03:01:23.644Z,0
2018-03-08T03:02:26.057Z,0
2018-03-08T03:03:28.487Z,0
2018-03-08T03:04:30.912Z,0
2018-03-08T03:05:33.620Z,0
2018-03-08T03:06:36.041Z,0
2018-03-08T03:07:38.774Z,0
2018-03-08T03:08:41.195Z,0
2018-03-08T03:09:43.622Z,0
2018-03-08T03:10:46.369Z,0
2018-03-08T03:11:48.789Z,0
2018-03-08T03:12:51.212Z,0
2018-03-08T03:13:53.631Z,0
2018-03-08T03:14:56.344Z,0
2018-03-08T03:15:58.770Z,0
2018-03-08T03:17:01.196Z,0
2018-03-08T03:18:03.895Z,0
2018-03-08T03:19:06.317Z,0
2018-03-08T03:20:08.751Z,0
2018-03-08T03:21:11.178Z,0
2018-03-08T03:22:13.599Z,0
2018-03-08T03:23:16.311Z,0
2018-03-08T03:24:18.732Z,0
2018-03-08T03:25:21.161Z,0
2018-03-08T03:26:23.589Z,0
2018-03-08T03:27:25.997Z,0
2018-03-08T03:28:28.438Z,0
2018-03-08T03:29:30.849Z,0
2018-03-08T03:30:33.574Z,0
2018-03-08T03:31:35.993Z,0
2018-03-08T03:32:38.416Z,0
2018-03-08T03:33:41.438Z,0
2018-03-08T03:34:44.154Z,0
2018-03-08T03:35:46.568Z,0
2018-03-08T03:36:48.998Z,0
2018-03-08T03:37:51.425Z,0
2018-03-08T03:38:53.854Z,0
2018-03-08T03:39:56.284Z,0
2018-03-08T03:40:58.711Z,0
2018-03-08T03:42:01.407Z,0
2018-03-08T03:43:03.846Z,0
2018-03-08T03:44:06.265Z,0
2018-03-08T03:45:08.684Z,0
2018-03-08T03:46:11.103Z,0
2018-03-08T03:47:13.526Z,0
2018-03-08T03:48:15.941Z,0
2018-03-08T03:49:18.381Z,0
2018-03-08T03:50:20.799Z,0
2018-03-08T03:51:23.218Z,0
2018-03-08T03:52:25.647Z,0
2018-03-08T03:53:28.082Z,0
2018-03-08T03:54:30.500Z,0
2018-03-08T03:55:32.927Z,0
2018-03-08T03:56:35.346Z,0
2018-03-08T03:57:37.769Z,0
2018-03-08T03:58:40.195Z,0
2018-03-08T03:59:42.616Z,0
2018-03-08T04:00:45.030Z,0
2018-03-08T04:01:47.461Z,0
2018-03-08T04:02:49.889Z,0
2018-03-08T04:03:52.313Z,0
2018-03-08T04:04:55.015Z,0
2018-03-08T04:05:57.452Z,0
2018-03-08T04:07:00.149Z,0
2018-03-08T04:08:02.587Z,0
2018-03-08T04:09:05.008Z,0
2018-03-08T04:10:07.426Z,0
2018-03-08T04:11:09.850Z,0
2018-03-08T04:12:12.302Z,0
2018-03-08T04:13:14.985Z,0
2018-03-08T04:14:17.413Z,0
2018-03-08T04:15:19.819Z,0
2018-03-08T04:16:22.246Z,0
2018-03-08T04:17:24.676Z,0
2018-03-08T04:18:27.099Z,0
2018-03-08T04:19:29.523Z,0
2018-03-08T04:20:31.948Z,0
2018-03-08T04:21:34.374Z,0
2018-03-08T04:22:36.798Z,0
2018-03-08T04:23:39.217Z,0
2018-03-08T04:24:41.941Z,0
2018-03-08T04:25:44.354Z,0
2018-03-08T04:26:46.778Z,0
2018-03-08T04:27:49.201Z,0
2018-03-08T04:28:51.624Z,0
2018-03-08T04:29:54.333Z,0
2018-03-08T04:30:56.762Z,0
2018-03-08T04:31:59.177Z,0
2018-03-08T04:33:01.608Z,0
2018-03-08T04:34:04.026Z,0
2018-03-08T04:35:06.442Z,0
2018-03-08T04:36:09.156Z,0
2018-03-08T04:37:11.586Z,0
2018-03-08T04:38:14.010Z,0
2018-03-08T04:39:16.720Z,0
2018-03-08T04:40:19.145Z,0
2018-03-08T04:41:21.573Z,0
2018-03-08T04:42:23.987Z,0
2018-03-08T04:43:26.421Z,0
2018-03-08T04:44:29.138Z,0
2018-03-08T04:45:31.568Z,0
2018-03-08T04:46:33.990Z,0
2018-03-08T04:47:36.993Z,0
2018-03-08T04:48:39.418Z,0
2018-03-08T04:49:42.138Z,0
2018-03-08T04:50:44.545Z,0
2018-03-08T04:51:46.977Z,0
2018-03-08T04:52:49.400Z,0
2018-03-08T04:53:51.837Z,0
2018-03-08T04:54:54.254Z,0
2018-03-08T04:55:56.678Z,0
2018-03-08T04:56:59.103Z,0
2018-03-08T04:58:01.529Z,0
2018-03-08T04:59:03.950Z,0
2018-03-08T05:00:06.368Z,0
2018-03-08T05:01:08.791Z,0
2018-03-08T05:02:11.216Z,0
2018-03-08T05:03:13.924Z,0
2018-03-08T05:04:16.632Z,0
2018-03-08T05:05:19.045Z,0
2018-03-08T05:06:21.769Z,0
2018-03-08T05:07:24.471Z,0
2018-03-08T05:08:27.466Z,0
2018-03-08T05:09:29.888Z,0
2018-03-08T05:10:32.596Z,0
2018-03-08T05:11:35.012Z,0
2018-03-08T05:12:37.452Z,0
2018-03-08T05:13:40.156Z,0
2018-03-08T05:14:42.859Z,0
2018-03-08T05:15:45.287Z,0
2018-03-08T05:16:47.709Z,0
2018-03-08T05:17:50.140Z,0
2018-03-08T05:18:52.846Z,0
2018-03-08T05:19:55.565Z,0
2018-03-08T05:20:57.989Z,0
2018-03-08T05:22:00.397Z,0
2018-03-08T05:23:02.828Z,0
2018-03-08T05:24:05.264Z,0
2018-03-08T05:25:07.686Z,0
2018-03-08T05:26:10.121Z,0
2018-03-08T05:27:12.540Z,0
2018-03-08T05:28:14.963Z,0
2018-03-08T05:29:17.395Z,0
2018-03-08T05:30:19.816Z,0
2018-03-08T05:31:22.229Z,0
2018-03-08T05:32:24.656Z,0
2018-03-08T05:33:27.374Z,0
2018-03-08T05:34:29.793Z,0
2018-03-08T05:35:32.514Z,0
2018-03-08T05:36:34.938Z,0
2018-03-08T05:37:37.358Z,0
2018-03-08T05:38:40.082Z,0
2018-03-08T05:39:42.796Z,0
2018-03-08T05:40:45.226Z,0
2018-03-08T05:41:47.659Z,0
2018-03-08T05:42:50.084Z,0
2018-03-08T05:43:52.504Z,0
2018-03-08T05:44:54.931Z,0
2018-03-08T05:45:57.353Z,0
2018-03-08T05:46:59.779Z,0
2018-03-08T05:48:02.211Z,0
2018-03-08T05:49:04.632Z,0
2018-03-08T05:50:07.354Z,0
2018-03-08T05:51:09.777Z,1
2018-03-08T05:52:12.201Z,1
2018-03-08T05:53:14.629Z,1
2018-03-08T05:54:17.047Z,1
2018-03-08T05:55:19.485Z,1
2018-03-08T05:56:21.899Z,1
2018-03-08T05:57:24.611Z,1
2018-03-08T05:58:27.033Z,1
2018-03-08T05:59:29.456Z,1
2018-03-08T06:00:31.886Z,1
2018-03-08T06:01:34.322Z,1
2018-03-08T06:02:36.740Z,1
2018-03-08T06:03:39.178Z,2
2018-03-08T06:04:41.595Z,2
2018-03-08T06:05:44.024Z,2
2018-03-08T06:06:46.461Z,2
2018-03-08T06:07:48.886Z,2
2018-03-08T06:08:51.313Z,3
2018-03-08T06:09:53.738Z,3
2018-03-08T06:10:56.169Z,3
2018-03-08T06:11:58.883Z,3
2018-03-08T06:13:01.311Z,3
2018-03-08T06:14:03.727Z,3
2018-03-08T06:15:06.161Z,3
2018-03-08T06:16:08.866Z,4
2018-03-08T06:17:11.299Z,4
2018-03-08T06:18:13.714Z,5
2018-03-08T06:19:16.153Z,5
2018-03-08T06:20:18.570Z,6
2018-03-08T06:21:20.990Z,6
2018-03-08T06:22:23.421Z,6
2018-03-08T06:23:25.843Z,6
2018-03-08T06:24:28.577Z,7
2018-03-08T06:25:31.003Z,7
2018-03-08T06:26:33.418Z,8
2018-03-08T06:27:35.850Z,9
2018-03-08T06:28:38.276Z,9
2018-03-08T06:29:40.992Z,10
2018-03-08T06:30:43.703Z,11
2018-03-08T06:31:46.414Z,12
2018-03-08T06:32:48.848Z,13
2018-03-08T06:33:51.283Z,12
2018-03-08T06:34:53.706Z,11
2018-03-08T06:35:56.133Z,10
2018-03-08T06:36:58.556Z,8
2018-03-08T06:38:00.986Z,8
2018-03-08T06:39:03.470Z,8
2018-03-08T06:40:06.180Z,8
2018-03-08T06:41:08.602Z,8
2018-03-08T06:42:11.028Z,7
2018-03-08T06:43:14.024Z,7
2018-03-08T06:44:16.450Z,7
2018-03-08T06:45:19.159Z,8
2018-03-08T06:46:22.152Z,9
2018-03-08T06:47:24.594Z,10
2018-03-08T06:48:27.006Z,10
2018-03-08T06:49:29.439Z,10
2018-03-08T06:50:32.138Z,11
2018-03-08T06:51:34.568Z,12
2018-03-08T06:52:36.973Z,12
2018-03-08T06:53:39.692Z,13
2018-03-08T06:54:42.128Z,13
2018-03-08T06:55:44.545Z,13
2018-03-08T06:56:46.973Z,14
2018-03-08T06:57:49.399Z,14
2018-03-08T06:58:51.819Z,15
2018-03-08T06:59:54.257Z,16
2018-03-08T07:00:56.680Z,16
2018-03-08T07:01:59.093Z,16
2018-03-08T07:03:01.520Z,17
2018-03-08T07:04:03.949Z,17
2018-03-08T07:05:06.370Z,16
2018-03-08T07:06:09.093Z,17
2018-03-08T07:07:11.509Z,18
2018-03-08T07:08:13.935Z,18
2018-03-08T07:09:16.360Z,18
2018-03-08T07:10:18.779Z,20
2018-03-08T07:11:21.205Z,21
2018-03-08T07:12:23.626Z,21
2018-03-08T07:13:26.037Z,21
2018-03-08T07:14:28.461Z,22
2018-03-08T07:15:30.887Z,23
2018-03-08T07:16:33.318Z,25
2018-03-08T07:17:35.742Z,26
2018-03-08T07:18:38.448Z,26
2018-03-08T07:19:41.162Z,25
2018-03-08T07:20:43.582Z,25
2018-03-08T07:21:46.011Z,24
2018-03-08T07:22:48.717Z,24
2018-03-08T07:23:51.141Z,26
2018-03-08T07:24:53.559Z,26
2018-03-08T07:25:55.999Z,30
2018-03-08T07:26:58.708Z,33
2018-03-08T07:28:01.117Z,35
2018-03-08T07:29:03.552Z,36
2018-03-08T07:30:05.974Z,39
2018-03-08T07:31:08.695Z,43
2018-03-08T07:32:11.113Z,44
2018-03-08T07:33:13.539Z,48
2018-03-08T07:34:15.961Z,48
2018-03-08T07:35:19.272Z,49
2018-03-08T07:36:21.690Z,51
2018-03-08T07:37:24.113Z,49
2018-03-08T07:38:26.533Z,47
2018-03-08T07:39:28.956Z,49
2018-03-08T07:40:31.666Z,47
2018-03-08T07:41:34.090Z,45
2018-03-08T07:42:36.800Z,42
2018-03-08T07:43:39.230Z,42
2018-03-08T07:44:41.647Z,43
2018-03-08T07:45:44.371Z,43
2018-03-08T07:46:46.794Z,45
2018-03-08T07:47:49.219Z,45
2018-03-08T07:48:51.651Z,46
2018-03-08T07:49:54.098Z,46
2018-03-08T07:50:56.912Z,50
2018-03-08T07:51:59.495Z,51
2018-03-08T07:53:02.362Z,54
2018-03-08T07:54:05.440Z,59
2018-03-08T07:55:07.926Z,59
2018-03-08T07:56:10.354Z,61
2018-03-08T07:57:12.778Z,63
2018-03-08T07:58:15.205Z,59
2018-03-08T07:59:17.612Z,60
2018-03-08T08:00:20.081Z,58
2018-03-08T08:01:22.513Z,56
2018-03-08T08:02:24.929Z,51
2018-03-08T08:03:27.651Z,50
2018-03-08T08:04:30.073Z,45
2018-03-08T08:05:32.783Z,38
2018-03-08T08:06:35.494Z,38
2018-03-08T08:07:37.924Z,39
2018-03-08T08:08:40.349Z,39
2018-03-08T08:09:42.774Z,38
2018-03-08T08:10:45.192Z,36
2018-03-08T08:11:48.188Z,31
2018-03-08T08:12:50.620Z,30
2018-03-08T08:13:53.323Z,27
2018-03-08T08:14:55.751Z,26
2018-03-08T08:15:58.273Z,26
2018-03-08T08:17:00.597Z,24
2018-03-08T08:18:03.319Z,25
2018-03-08T08:19:05.743Z,27
2018-03-08T08:20:08.175Z,33
2018-03-08T08:21:10.610Z,33
2018-03-08T08:22:13.320Z,44
2018-03-08T08:23:15.760Z,55
2018-03-08T08:24:18.181Z,52
2018-03-08T08:25:20.612Z,46
2018-03-08T08:26:23.603Z,43
2018-03-08T08:27:26.024Z,46
2018-03-08T08:28:28.450Z,42
2018-03-08T08:29:31.169Z,48
2018-03-08T08:30:33.600Z,45
2018-03-08T08:31:36.020Z,51
2018-03-08T08:32:38.441Z,55
2018-03-08T08:33:40.862Z,49
2018-03-08T08:34:43.303Z,51
2018-03-08T08:35:45.722Z,54
2018-03-08T08:36:48.138Z,57
2018-03-08T08:37:50.571Z,45
2018-03-08T08:38:52.995Z,40
2018-03-08T08:39:55.429Z,37
2018-03-08T08:40:57.859Z,45
2018-03-08T08:42:00.280Z,39
2018-03-08T08:43:02.812Z,35
2018-03-08T08:44:05.536Z,29
2018-03-08T08:45:08.248Z,28
2018-03-08T08:46:10.666Z,27
2018-03-08T08:47:13.094Z,28
2018-03-08T08:48:15.518Z,29
2018-03-08T08:49:17.949Z,26
2018-03-08T08:50:20.371Z,26
2018-03-08T08:51:22.811Z,26
2018-03-08T08:52:25.237Z,27
2018-03-08T08:53:27.942Z,27
2018-03-08T08:54:31.013Z,26
2018-03-08T08:55:33.692Z,29
2018-03-08T08:56:36.107Z,24
2018-03-08T08:57:38.539Z,19
2018-03-08T08:58:41.236Z,17
2018-03-08T08:59:43.670Z,17
2018-03-08T09:00:46.103Z,15
2018-03-08T09:01:48.529Z,12
2018-03-08T09:02:50.954Z,12
2018-03-08T09:03:53.698Z,11
2018-03-08T09:04:56.120Z,11
2018-03-08T09:05:58.547Z,10
2018-03-08T09:07:00.972Z,11
2018-03-08T09:08:03.669Z,13
2018-03-08T09:09:06.403Z,12
2018-03-08T09:10:08.814Z,12
2018-03-08T09:11:11.534Z,10
2018-03-08T09:12:14.260Z,10
2018-03-08T09:13:16.699Z,9
2018-03-08T09:14:19.115Z,10
2018-03-08T09:15:21.553Z,10
2018-03-08T09:16:24.278Z,11
2018-03-08T09:17:26.722Z,12
2018-03-08T09:18:29.139Z,12
2018-03-08T09:19:31.565Z,13
2018-03-08T09:20:33.989Z,14
2018-03-08T09:21:36.708Z,15
2018-03-08T09:22:39.136Z,16
2018-03-08T09:23:41.845Z,13
2018-03-08T09:24:44.571Z,14
2018-03-08T09:25:46.999Z,16
2018-03-08T09:26:49.433Z,15
2018-03-08T09:27:51.857Z,17
2018-03-08T09:28:54.286Z,17
2018-03-08T09:29:56.711Z,18
2018-03-08T09:30:59.138Z,19
2018-03-08T09:32:01.870Z,19
2018-03-08T09:33:04.291Z,21
2018-03-08T09:34:06.713Z,19
2018-03-08T09:35:09.139Z,19
2018-03-08T09:36:11.568Z,20
2018-03-08T09:37:14.276Z,19
2018-03-08T09:38:16.720Z,20
2018-03-08T09:39:19.131Z,19
2018-03-08T09:40:21.561Z,19
2018-03-08T09:41:23.996Z,19
2018-03-08T09:42:26.416Z,20
2018-03-08T09:43:28.847Z,19
2018-03-08T09:44:31.267Z,19
2018-03-08T09:45:33.995Z,21
2018-03-08T09:46:36.707Z,20
2018-03-08T09:47:39.411Z,22
2018-03-08T09:48:42.421Z,23
2018-03-08T09:49:44.844Z,24
2018-03-08T09:50:47.251Z,26
2018-03-08T09:51:50.032Z,30
2018-03-08T09:52:52.420Z,35
2018-03-08T09:53:54.852Z,32
2018-03-08T09:54:57.276Z,34
2018-03-08T09:55:59.703Z,34
2018-03-08T09:57:02.128Z,29
2018-03-08T09:58:04.555Z,33
2018-03-08T09:59:07.053Z,30
2018-03-08T10:00:09.723Z,30
2018-03-08T10:01:12.152Z,30
2018-03-08T10:02:14.573Z,32
2018-03-08T10:03:17.006Z,31
2018-03-08T10:04:19.723Z,32
2018-03-08T10:05:22.735Z,30
2018-03-08T10:06:25.171Z,31
2018-03-08T10:07:27.590Z,36
2018-03-08T10:08:30.014Z,38
2018-03-08T10:09:32.438Z,35
2018-03-08T10:10:35.435Z,37
2018-03-08T10:11:37.855Z,36
2018-03-08T10:12:40.589Z,43
2018-03-08T10:13:43.004Z,45
2018-03-08T10:14:45.721Z,48
2018-03-08T10:15:48.152Z,48
2018-03-08T10:16:50.568Z,40
2018-03-08T10:17:52.993Z,33
2018-03-08T10:18:55.420Z,31
2018-03-08T10:19:58.135Z,28
2018-03-08T10:21:00.563Z,28
2018-03-08T10:22:02.987Z,29
2018-03-08T10:23:05.416Z,27
2018-03-08T10:24:07.848Z,27
2018-03-08T10:25:10.554Z,26
2018-03-08T10:26:13.292Z,30
2018-03-08T10:27:15.715Z,33
2018-03-08T10:28:18.140Z,33
2018-03-08T10:29:20.565Z,33
2018-03-08T10:30:22.986Z,31
2018-03-08T10:31:25.405Z,29
2018-03-08T10:32:27.843Z,28
2018-03-08T10:33:30.264Z,28
2018-03-08T10:34:32.992Z,28
2018-03-08T10:35:35.433Z,28
2018-03-08T10:36:38.140Z,28
2018-03-08T10:37:40.577Z,28
2018-03-08T10:38:43.008Z,30
2018-03-08T10:39:45.738Z,28
2018-03-08T10:40:48.142Z,27
2018-03-08T10:41:50.564Z,26
2018-03-08T10:42:52.987Z,25
2018-03-08T10:43:55.409Z,25
2018-03-08T10:44:57.834Z,24
2018-03-08T10:46:00.250Z,24
2018-03-08T10:47:02.674Z,25
2018-03-08T10:48:05.105Z,27
2018-03-08T10:49:07.585Z,30
2018-03-08T10:50:09.948Z,35
2018-03-08T10:51:12.385Z,39
2018-03-08T10:52:14.812Z,39
2018-03-08T10:53:17.247Z,40
2018-03-08T10:54:19.713Z,44
2018-03-08T10:55:22.106Z,43
2018-03-08T10:56:24.810Z,43
2018-03-08T10:57:27.246Z,45
2018-03-08T10:58:29.663Z,44
2018-03-08T10:59:32.085Z,45
2018-03-08T11:00:34.828Z,49
2018-03-08T11:01:37.254Z,49
2018-03-08T11:02:39.673Z,52
2018-03-08T11:03:42.333Z,48
2018-03-08T11:04:44.597Z,48
2018-03-08T11:05:47.835Z,50
2018-03-08T11:06:52.221Z,55
2018-03-08T11:07:54.675Z,61
2018-03-08T11:08:57.103Z,61
2018-03-08T11:09:59.533Z,65
2018-03-08T11:11:01.955Z,67
2018-03-08T11:12:04.401Z,73
2018-03-08T11:13:06.819Z,75
2018-03-08T11:14:09.533Z,65
2018-03-08T11:15:11.961Z,61
2018-03-08T11:16:14.410Z,66
2018-03-08T11:17:16.813Z,66
2018-03-08T11:18:19.527Z,68
2018-03-08T11:19:22.247Z,64
2018-03-08T11:20:24.681Z,56
2018-03-08T11:21:27.101Z,65
2018-03-08T11:22:29.530Z,63
2018-03-08T11:23:32.259Z,57
2018-03-08T11:24:34.683Z,57
2018-03-08T11:25:37.110Z,57
2018-03-08T11:26:39.536Z,63
2018-03-08T11:27:41.966Z,73
2018-03-08T11:28:44.401Z,78
2018-03-08T11:29:46.833Z,111
2018-03-08T11:30:49.266Z,80
2018-03-08T11:31:51.681Z,62
2018-03-08T11:32:54.405Z,54
2018-03-08T11:33:56.827Z,48
2018-03-08T11:34:59.254Z,55
2018-03-08T11:36:01.685Z,59
2018-03-08T11:37:04.106Z,58
2018-03-08T11:38:06.828Z,57
2018-03-08T11:39:09.252Z,53
2018-03-08T11:40:11.977Z,45
2018-03-08T11:41:14.986Z,45
2018-03-08T11:42:17.420Z,57
2018-03-08T11:43:20.137Z,55
2018-03-08T11:44:22.560Z,76
2018-03-08T11:45:24.996Z,102
2018-03-08T11:46:29.470Z,66
2018-03-08T11:47:30.128Z,56
2018-03-08T11:48:33.842Z,51
2018-03-08T11:49:36.632Z,50
2018-03-08T11:50:39.060Z,50
2018-03-08T11:51:41.487Z,50
2018-03-08T11:52:43.913Z,47
2018-03-08T11:53:46.331Z,53
2018-03-08T11:54:48.845Z,61
2018-03-08T11:55:51.191Z,56
2018-03-08T11:56:53.622Z,61
2018-03-08T11:57:56.046Z,59
2018-03-08T11:58:58.752Z,57
2018-03-08T12:00:01.184Z,45
2018-03-08T12:01:03.614Z,53
2018-03-08T12:02:06.022Z,61
2018-03-08T12:03:08.459Z,65
2018-03-08T12:04:10.896Z,69
2018-03-08T12:05:13.613Z,85
2018-03-08T12:06:16.040Z,83
2018-03-08T12:07:18.757Z,74
2018-03-08T12:08:21.468Z,69
2018-03-08T12:09:23.900Z,55
2018-03-08T12:10:26.322Z,53
2018-03-08T12:11:28.755Z,57
2018-03-08T12:12:31.179Z,57
2018-03-08T12:13:33.611Z,53
2018-03-08T12:14:36.038Z,61
2018-03-08T12:15:38.468Z,70
2018-03-08T12:16:40.901Z,68
2018-03-08T12:17:43.332Z,70
2018-03-08T12:18:45.749Z,58
2018-03-08T12:19:48.179Z,57
2018-03-08T12:20:50.615Z,64
2018-03-08T12:21:53.034Z,57
2018-03-08T12:22:55.456Z,63
2018-03-08T12:23:57.891Z,52
2018-03-08T12:25:00.313Z,58
2018-03-08T12:26:03.037Z,70
2018-03-08T12:27:05.472Z,74
2018-03-08T12:28:07.910Z,72
2018-03-08T12:29:10.326Z,53
2018-03-08T12:30:13.324Z,57
2018-03-08T12:31:15.751Z,53
2018-03-08T12:32:18.185Z,52
2018-03-08T12:33:20.659Z,68
2018-03-08T12:34:23.327Z,68
2018-03-08T12:35:26.078Z,95
2018-03-08T12:36:28.784Z,123
2018-03-08T12:37:31.232Z,146
2018-03-08T12:38:33.659Z,173
2018-03-08T12:39:36.473Z,266
2018-03-08T12:40:38.874Z,219
2018-03-08T12:41:41.303Z,193
2018-03-08T12:42:44.022Z,261
2018-03-08T12:43:46.457Z,226
2018-03-08T12:44:49.179Z,258
2018-03-08T12:45:51.619Z,173
2018-03-08T12:46:54.041Z,151
2018-03-08T12:47:56.476Z,129
2018-03-08T12:48:58.908Z,126
2018-03-08T12:50:01.337Z,176
2018-03-08T12:51:03.770Z,132
2018-03-08T12:52:06.200Z,116
2018-03-08T12:53:08.629Z,179
2018-03-08T12:54:11.073Z,139
2018-03-08T12:55:13.497Z,121
2018-03-08T12:56:15.924Z,136
2018-03-08T12:57:18.362Z,106
2018-03-08T12:58:20.793Z,99
2018-03-08T12:59:23.543Z,82
2018-03-08T13:00:25.980Z,71
2018-03-08T13:01:28.401Z,95
2018-03-08T13:02:30.836Z,110
2018-03-08T13:03:33.261Z,158
2018-03-08T13:04:35.982Z,131
2018-03-08T13:05:38.417Z,125
2018-03-08T13:06:40.844Z,178
2018-03-08T13:07:43.271Z,110
2018-03-08T13:08:46.003Z,104
2018-03-08T13:09:48.428Z,144
2018-03-08T13:10:51.142Z,133
2018-03-08T13:11:53.572Z,86
2018-03-08T13:12:56.304Z,83
2018-03-08T13:13:58.739Z,91
2018-03-08T13:15:01.176Z,99
2018-03-08T13:16:03.598Z,104
2018-03-08T13:17:06.815Z,147
2018-03-08T13:18:11.720Z,325
2018-03-08T13:19:15.858Z,148
2018-03-08T13:20:20.089Z,281
2018-03-08T13:21:24.323Z,118
2018-03-08T13:22:28.437Z,124
2018-03-08T13:23:31.997Z,104
2018-03-08T13:24:34.811Z,83
2018-03-08T13:25:37.256Z,95
2018-03-08T13:26:39.681Z,101
2018-03-08T13:27:42.105Z,87
2018-03-08T13:28:44.536Z,74
2018-03-08T13:29:46.977Z,118
2018-03-08T13:30:49.403Z,287
2018-03-08T13:31:52.136Z,246
2018-03-08T13:32:54.560Z,105
2018-03-08T13:33:56.988Z,96
2018-03-08T13:34:59.746Z,78
2018-03-08T13:36:02.453Z,75
2018-03-08T13:37:04.895Z,80
2018-03-08T13:38:07.620Z,94
2018-03-08T13:39:10.049Z,114
2018-03-08T13:40:12.484Z,181
2018-03-08T13:41:14.922Z,296
2018-03-08T13:42:17.351Z,179
2018-03-08T13:43:19.805Z,158
2018-03-08T13:44:22.519Z,242
2018-03-08T13:45:24.952Z,212
2018-03-08T13:46:27.373Z,209
2018-03-08T13:47:29.808Z,241
2018-03-08T13:48:32.238Z,209
2018-03-08T13:49:34.665Z,232
2018-03-08T13:50:37.105Z,221
2018-03-08T13:51:39.537Z,210
2018-03-08T13:52:41.979Z,219
2018-03-08T13:53:44.414Z,125
2018-03-08T13:54:46.857Z,210
2018-03-08T13:55:49.289Z,208
2018-03-08T13:56:51.729Z,248
2018-03-08T13:57:54.453Z,248
2018-03-08T13:58:56.888Z,236
2018-03-08T13:59:59.327Z,242
2018-03-08T14:01:02.026Z,240
2018-03-08T14:02:04.468Z,218
2018-03-08T14:03:06.903Z,208
2018-03-08T14:04:09.342Z,175
2018-03-08T14:05:11.773Z,169
2018-03-08T14:06:14.216Z,134
2018-03-08T14:07:16.649Z,139
2018-03-08T14:08:19.191Z,147
2018-03-08T14:09:21.626Z,166
2018-03-08T14:10:24.050Z,175
2018-03-08T14:11:26.489Z,198
2018-03-08T14:12:28.924Z,191
2018-03-08T14:13:31.640Z,180
2018-03-08T14:14:34.075Z,186
2018-03-08T14:15:36.809Z,198
2018-03-08T14:16:39.540Z,190
2018-03-08T14:17:41.971Z,180
2018-03-08T14:18:44.404Z,163
2018-03-08T14:19:46.847Z,187
2018-03-08T14:20:49.283Z,189
2018-03-08T14:21:51.724Z,174
2018-03-08T14:22:54.141Z,167
2018-03-08T14:23:56.583Z,158
2018-03-08T14:24:59.036Z,183
2018-03-08T14:26:01.467Z,178
2018-03-08T14:27:03.912Z,179
2018-03-08T14:28:06.343Z,124
2018-03-08T14:29:08.780Z,139
2018-03-08T14:30:11.509Z,149
2018-03-08T14:31:13.951Z,151
2018-03-08T14:32:16.390Z,182
2018-03-08T14:33:19.110Z,174
2018-03-08T14:34:21.553Z,129
2018-03-08T14:35:24.276Z,150
2018-03-08T14:36:26.720Z,158
2018-03-08T14:37:29.158Z,159
2018-03-08T14:38:31.594Z,157
2018-03-08T14:39:34.034Z,137
2018-03-08T14:40:36.754Z,152
2018-03-08T14:41:39.198Z,170
2018-03-08T14:42:41.937Z,169
2018-03-08T14:43:44.380Z,168
2018-03-08T14:44:46.820Z,181
2018-03-08T14:45:49.252Z,158
2018-03-08T14:46:51.984Z,154
2018-03-08T14:47:54.482Z,168
2018-03-08T14:48:56.855Z,177
2018-03-08T14:49:59.301Z,179
2018-03-08T14:51:01.741Z,171
2018-03-08T14:52:04.177Z,163
2018-03-08T14:53:06.616Z,165
2018-03-08T14:54:09.061Z,166
2018-03-08T14:55:11.494Z,154
2018-03-08T14:56:13.950Z,142
2018-03-08T14:57:16.386Z,152
2018-03-08T14:58:19.131Z,146
2018-03-08T14:59:21.632Z,123
2018-03-08T15:00:24.053Z,99